Time;durP1;ratioP1;P1;durP2;ratioP2;P2;SDS_P1;SDS_P2;PMS_P1;PMS_P2;Temp;Humidity;BMP_temperature;BMP_pressure;BME280_temperature;BME280_humidity;BME280_pressure;Samples;Min_cycle;Max_cycle;Signal;HPM_P1;HPM_P2
2022/09/20 00:01:05;;;;;;;0.20;0.20;;;;;;;11.40;67.66;93449.69;5091128;28;20019;-33
2022/09/20 00:03:30;;;;;;;5.28;0.52;;;;;;;11.30;67.50;93435.69;5091636;28;20042;-33
2022/09/20 00:06:00;;;;;;;0.20;0.20;;;;;;;11.42;67.32;93447.09;5091538;28;20028;-33
2022/09/20 00:08:25;;;;;;;0.20;0.20;;;;;;;11.40;67.80;93444.16;5091789;28;20028;-33
2022/09/20 00:10:52;;;;;;;0.20;0.20;;;;;;;11.40;67.98;93444.91;5091321;28;20054;-33
2022/09/20 00:13:18;;;;;;;0.20;0.20;;;;;;;11.47;67.56;93443.44;5091682;28;20044;-33
2022/09/20 00:15:44;;;;;;;0.20;0.20;;;;;;;11.30;68.08;93443.25;5091744;28;20458;-33
2022/09/20 00:18:11;;;;;;;0.20;0.20;;;;;;;11.11;68.01;93431.84;5073314;28;20055;-33
2022/09/20 00:20:46;;;;;;;0.20;0.20;;;;;;;11.29;67.43;93445.28;5091652;28;20050;-33
2022/09/20 00:23:12;;;;;;;0.30;0.30;;;;;;;11.23;68.18;93435.69;5091261;28;20035;-33
2022/09/20 00:25:38;;;;;;;0.20;0.20;;;;;;;11.17;67.71;93449.72;5090881;28;20032;-33
2022/09/20 00:28:03;;;;;;;0.20;0.20;;;;;;;10.96;67.97;93434.59;5091486;28;20024;-33
2022/09/20 00:30:30;;;;;;;0.20;0.20;;;;;;;10.95;69.16;93449.69;5091401;28;20580;-33
2022/09/20 00:32:55;;;;;;;0.20;0.20;;;;;;;10.85;68.54;93448.78;5073438;28;20031;-33
2022/09/20 00:35:21;;;;;;;0.20;0.20;;;;;;;10.75;68.44;93443.03;5091063;28;20032;-33
2022/09/20 00:37:46;;;;;;;0.20;0.20;;;;;;;10.71;68.62;93453.72;5090825;28;20039;-34
2022/09/20 00:40:15;;;;;;;0.20;0.20;;;;;;;10.80;68.72;93449.66;5091079;28;20038;-33
2022/09/20 00:42:41;;;;;;;0.40;0.40;;;;;;;10.87;68.19;93446.91;5091132;28;20020;-33
2022/09/20 00:45:16;;;;;;;0.28;0.28;;;;;;;10.78;68.04;93447.47;5090935;28;20522;-33
2022/09/20 00:47:45;;;;;;;0.57;0.57;;;;;;;10.79;68.51;93439.91;5090907;28;20035;-33
2022/09/20 00:50:35;;;;;;;0.97;0.97;;;;;;;10.71;68.92;93450.19;5090844;28;20034;-33
2022/09/20 00:53:19;;;;;;;0.40;0.40;;;;;;;10.71;68.21;93442.66;5091049;28;20058;-33
2022/09/20 00:55:53;;;;;;;0.20;0.20;;;;;;;10.55;68.68;93444.66;5091055;28;20092;-33
2022/09/20 00:58:19;;;;;;;0.20;0.20;;;;;;;10.57;68.89;93439.31;5090815;28;20121;-33
2022/09/20 01:00:45;;;;;;;0.47;0.47;;;;;;;10.61;68.41;93442.44;5055963;28;20440;-33
2022/09/20 01:03:13;;;;;;;0.40;0.40;;;;;;;10.72;68.53;93443.41;5090679;28;20028;-33
2022/09/20 01:05:38;;;;;;;0.40;0.40;;;;;;;10.75;68.17;93437.50;5072602;28;20699;-33
2022/09/20 01:08:04;;;;;;;0.82;0.82;;;;;;;10.83;68.22;93441.00;5090552;28;20084;-33
2022/09/20 01:10:31;;;;;;;0.63;0.63;;;;;;;10.91;67.98;93441.78;5090147;28;20028;-33
2022/09/20 01:12:57;;;;;;;0.20;0.20;;;;;;;10.90;67.53;93442.31;5071967;28;20063;-33
2022/09/20 01:15:24;;;;;;;0.20;0.20;;;;;;;10.94;67.51;93442.69;5090517;28;20062;-34
2022/09/20 01:17:52;;;;;;;0.30;0.30;;;;;;;11.04;67.30;93443.63;5072835;28;20508;-33
2022/09/20 01:20:33;;;;;;;0.20;0.20;;;;;;;11.06;67.10;93438.28;5090467;28;20055;-33
2022/09/20 01:23:16;;;;;;;0.25;0.25;;;;;;;11.05;66.46;93434.03;5072717;28;20043;-33
2022/09/20 01:26:13;;;;;;;0.20;0.20;;;;;;;11.06;66.87;93430.75;5090214;28;20548;-33
2022/09/20 01:28:41;;;;;;;0.30;0.30;;;;;;;11.02;66.58;93435.16;5072412;28;20033;-33
2022/09/20 01:31:15;;;;;;;0.20;0.20;;;;;;;11.08;66.63;93436.44;5072486;28;20495;-33
2022/09/20 01:34:08;;;;;;;0.20;0.20;;;;;;;11.01;66.59;93439.94;5090339;28;20079;-33
2022/09/20 01:36:49;;;;;;;0.30;0.30;;;;;;;11.03;67.23;93434.59;5072569;28;20051;-33
2022/09/20 01:39:26;;;;;;;7.57;0.75;;;;;;;11.08;66.71;93435.69;5090260;28;20084;-33
2022/09/20 01:41:58;;;;;;;0.20;0.20;;;;;;;11.03;66.55;93433.84;5090193;28;20020;-33
2022/09/20 01:44:48;;;;;;;0.20;0.20;;;;;;;10.95;66.50;93435.88;5090514;28;20028;-33
2022/09/20 01:47:31;;;;;;;0.20;0.20;;;;;;;10.97;66.26;93447.84;5090223;28;20021;-33
2022/09/20 01:50:42;;;;;;;0.30;0.30;;;;;;;10.88;67.16;93439.38;5090181;28;20024;-33
2022/09/20 01:53:16;;;;;;;0.50;0.50;;;;;;;10.91;66.94;93439.00;5085899;28;20048;-33
2022/09/20 01:56:01;;;;;;;0.30;0.30;;;;;;;10.84;67.44;93442.50;5090427;28;20050;-33
2022/09/20 01:59:09;;;;;;;0.20;0.20;;;;;;;10.72;67.45;93438.59;5072434;28;20024;-33
2022/09/20 02:02:07;;;;;;;0.20;0.20;;;;;;;10.72;68.19;93429.59;5090356;28;20030;-33
2022/09/20 02:04:41;;;;;;;0.20;0.20;;;;;;;10.71;67.77;93430.88;5071946;28;20086;-33
2022/09/20 02:07:13;;;;;;;0.30;0.30;;;;;;;10.65;68.13;93434.53;5090278;28;20067;-33
2022/09/20 02:10:06;;;;;;;0.20;0.20;;;;;;;10.69;67.89;93439.72;5090300;28;20027;-33
2022/09/20 02:12:50;;;;;;;0.47;0.47;;;;;;;10.57;68.08;93436.56;5089767;28;20476;-33
2022/09/20 02:15:58;;;;;;;0.20;0.20;;;;;;;10.65;67.35;93433.81;5090216;28;20047;-33
2022/09/20 02:18:45;;;;;;;0.20;0.20;;;;;;;10.66;67.07;93435.28;5072021;28;20024;-33
2022/09/20 02:21:24;;;;;;;0.20;0.20;;;;;;;10.43;68.03;93438.00;5090163;28;20032;-33
2022/09/20 02:23:59;;;;;;;0.45;0.45;;;;;;;10.39;68.34;93429.34;5074707;28;20055;-33
2022/09/20 02:27:17;;;;;;;0.40;0.40;;;;;;;10.22;68.87;93439.41;5093573;28;20032;-33
2022/09/20 02:30:04;;;;;;;0.30;0.30;;;;;;;10.19;69.71;93437.72;5077551;28;20040;-33
2022/09/20 02:32:57;;;;;;;0.20;0.20;;;;;;;10.21;69.34;93430.41;5093610;28;20020;-33
2022/09/20 02:35:28;;;;;;;0.25;0.25;;;;;;;10.18;69.06;93431.47;5093400;28;20032;-33
2022/09/20 02:37:54;;;;;;;0.20;0.20;;;;;;;10.20;69.20;93431.66;5093139;28;20036;-33
2022/09/20 02:40:31;;;;;;;0.20;0.20;;;;;;;10.01;69.75;93433.22;5093342;28;20081;-33
2022/09/20 02:43:10;;;;;;;0.20;0.20;;;;;;;10.00;69.83;93421.47;5093490;28;20031;-33
2022/09/20 02:45:46;;;;;;;0.30;0.30;;;;;;;9.90;70.14;93426.00;5075597;28;20034;-33
2022/09/20 02:48:14;;;;;;;0.20;0.20;;;;;;;9.88;70.23;93434.81;5075366;28;20440;-33
2022/09/20 02:51:30;;;;;;;0.20;0.20;;;;;;;9.79;70.69;93440.09;5075023;28;20024;-33
2022/09/20 02:53:58;;;;;;;0.20;0.20;;;;;;;9.75;71.06;93434.94;5067646;28;20063;-33
2022/09/20 02:56:31;;;;;;;0.20;0.20;;;;;;;9.82;70.88;93439.03;5092970;28;20487;-33
2022/09/20 02:59:03;;;;;;;0.20;0.20;;;;;;;9.73;69.96;93431.25;5092801;28;20081;-33
2022/09/20 03:01:31;;;;;;;0.38;0.38;;;;;;;9.76;70.38;93446.72;5092909;28;20016;-33
2022/09/20 03:04:12;;;;;;;0.30;0.30;;;;;;;9.60;70.74;93450.66;5092863;28;20032;-33
2022/09/20 03:07:20;;;;;;;0.20;0.20;;;;;;;9.66;70.07;93443.72;5092833;28;20081;-33
2022/09/20 03:10:23;;;;;;;0.28;0.28;;;;;;;9.53;70.56;93446.56;5025208;28;20031;-33
2022/09/20 03:13:06;;;;;;;0.28;0.28;;;;;;;9.42;70.69;93454.41;5092612;28;20050;-33
2022/09/20 03:15:49;;;;;;;1.15;1.10;;;;;;;9.11;71.23;93425.91;5092690;28;20028;-33
2022/09/20 03:18:35;;;;;;;0.20;0.20;;;;;;;9.24;71.36;93458.88;5074624;28;20458;-33
2022/09/20 03:21:21;;;;;;;0.20;0.20;;;;;;;9.18;71.79;93461.75;5074754;28;20128;-33
2022/09/20 03:24:34;;;;;;;0.20;0.20;;;;;;;9.31;72.13;93471.22;5092491;28;20034;-33
2022/09/20 03:27:11;;;;;;;0.40;0.40;;;;;;;9.34;72.32;93468.13;5008823;28;20113;-33
2022/09/20 03:30:02;;;;;;;0.20;0.20;;;;;;;9.33;72.68;93474.19;5086150;28;20122;-33
2022/09/20 03:32:52;;;;;;;0.20;0.20;;;;;;;9.26;73.55;93478.34;5092530;28;20377;-33
2022/09/20 03:35:28;;;;;;;0.20;0.20;;;;;;;9.32;73.29;93489.22;5091627;28;20515;-33
2022/09/20 03:37:59;;;;;;;0.45;0.45;;;;;;;9.44;72.38;93488.41;5092262;28;20036;-33
2022/09/20 03:40:40;;;;;;;0.63;0.40;;;;;;;9.42;72.29;93493.72;5092244;28;20031;-33
2022/09/20 03:43:35;;;;;;;0.25;0.25;;;;;;;9.40;72.08;93493.50;5092396;28;20157;-33
2022/09/20 03:46:29;;;;;;;0.20;0.20;;;;;;;9.31;72.92;93493.28;5092326;28;20024;-33
2022/09/20 03:49:23;;;;;;;0.20;0.20;;;;;;;9.42;73.03;93496.47;5092326;28;20067;-33
2022/09/20 03:52:08;;;;;;;0.20;0.20;;;;;;;9.48;72.58;93488.06;5091882;28;20031;-33
2022/09/20 03:54:56;;;;;;;0.30;0.30;;;;;;;9.48;72.26;93493.59;5091846;28;20028;-33
2022/09/20 03:57:45;;;;;;;0.32;0.32;;;;;;;9.57;71.40;93487.59;5071879;28;20063;-33
2022/09/20 04:00:40;;;;;;;0.20;0.20;;;;;;;9.45;72.26;93489.88;5071484;28;20092;-33
2022/09/20 04:03:19;;;;;;;0.20;0.20;;;;;;;9.47;71.79;93495.59;5071464;28;20032;-33
2022/09/20 04:06:08;;;;;;;0.20;0.20;;;;;;;9.46;71.90;93501.66;5071507;28;20025;-33
2022/09/20 04:08:54;;;;;;;;;;;;;;;9.49;72.66;93503.31;5071972;28;20515;-33
2022/09/20 04:11:39;;;;;;;0.50;0.50;;;;;;;9.36;72.34;93500.63;5057261;28;19948;-33
2022/09/20 04:14:28;;;;;;;0.20;0.20;;;;;;;9.43;72.20;93502.72;5071185;28;20078;-33
2022/09/20 04:17:05;;;;;;;0.20;0.20;;;;;;;9.43;72.26;93511.00;5072571;28;20032;-33
2022/09/20 04:19:46;;;;;;;0.20;0.20;;;;;;;9.26;72.76;93502.41;5073320;28;20024;-33
2022/09/20 04:22:12;;;;;;;0.30;0.30;;;;;;;9.36;72.48;93506.91;5091289;28;20507;-33
2022/09/20 04:24:47;;;;;;;0.32;0.32;;;;;;;9.40;72.53;93509.34;5091272;28;20027;-33
2022/09/20 04:27:28;;;;;;;0.35;0.35;;;;;;;9.46;72.04;93515.44;5091556;28;20046;-33
2022/09/20 04:30:05;;;;;;;0.47;0.47;;;;;;;9.49;71.90;93520.59;5091479;28;20132;-33
2022/09/20 04:32:40;;;;;;;0.43;0.43;;;;;;;9.41;72.01;93517.06;5091065;28;20424;-33
2022/09/20 04:38:22;;;;;;;0.20;0.20;;;;;;;9.29;71.65;93520.63;5016448;28;20058;-33
2022/09/20 04:41:02;;;;;;;0.20;0.20;;;;;;;8.99;73.01;93513.56;5091067;28;20524;-33
2022/09/20 04:43:50;;;;;;;0.20;0.20;;;;;;;9.08;73.64;93524.13;5091042;28;20020;-33
2022/09/20 04:46:53;;;;;;;0.45;0.45;;;;;;;9.17;72.94;93525.66;5090732;28;20028;-34
2022/09/20 04:49:27;;;;;;;0.20;0.20;;;;;;;9.16;73.38;93526.94;5090868;28;20024;-33
2022/09/20 04:52:10;;;;;;;0.63;0.60;;;;;;;9.13;73.72;93528.75;5090670;28;20027;-33
2022/09/20 04:55:05;;;;;;;0.85;0.85;;;;;;;9.19;73.26;93534.13;5072807;28;20499;-33
2022/09/20 04:57:40;;;;;;;0.20;0.20;;;;;;;9.13;73.01;93528.03;5072775;28;20123;-33
2022/09/20 05:00:12;;;;;;;0.30;0.30;;;;;;;9.23;73.00;93529.00;5090761;28;20027;-33
2022/09/20 05:02:41;;;;;;;0.60;0.60;;;;;;;9.34;72.86;93531.50;5073135;28;20088;-33
2022/09/20 05:05:45;;;;;;;0.30;0.30;;;;;;;9.35;72.08;93529.50;5090704;28;20020;-33
2022/09/20 05:08:29;;;;;;;0.20;0.20;;;;;;;9.32;72.04;93536.06;5090541;28;20024;-33
2022/09/20 05:11:16;;;;;;;0.20;0.20;;;;;;;9.50;71.65;93540.63;5090473;28;20039;-33
2022/09/20 05:13:47;;;;;;;0.20;0.20;;;;;;;9.55;71.29;93542.50;5090850;28;20028;-33
2022/09/20 05:16:40;;;;;;;0.50;0.50;;;;;;;9.56;71.38;93535.72;5090435;28;20055;-33
2022/09/20 05:19:18;;;;;;;0.20;0.20;;;;;;;9.57;70.17;93539.97;5090486;28;20032;-33
2022/09/20 05:21:48;;;;;;;0.20;0.20;;;;;;;9.51;71.24;93542.84;5090386;28;20026;-33
2022/09/20 05:24:39;;;;;;;0.20;0.20;;;;;;;9.61;70.40;93534.84;5072801;28;20028;-33
2022/09/20 05:27:27;;;;;;;0.30;0.30;;;;;;;9.66;69.56;93536.69;5090330;28;20058;-33
2022/09/20 05:30:11;;;;;;;0.40;0.40;;;;;;;9.60;70.02;93539.59;5090564;28;20116;-33
2022/09/20 05:32:57;;;;;;;0.20;0.20;;;;;;;9.58;70.27;93535.91;5090299;28;20050;-33
2022/09/20 05:35:53;;;;;;;0.20;0.20;;;;;;;9.58;71.16;93544.19;5072385;28;20032;-33
2022/09/20 05:38:22;;;;;;;0.20;0.20;;;;;;;9.55;71.18;93537.00;5090302;28;20052;-33
2022/09/20 05:41:12;;;;;;;0.20;0.20;;;;;;;9.65;69.95;93533.22;5072630;28;20036;-33
2022/09/20 05:43:56;;;;;;;0.20;0.20;;;;;;;9.82;70.33;93535.53;5052184;28;20048;-33
2022/09/20 05:46:45;;;;;;;0.20;0.20;;;;;;;9.83;69.67;93523.94;5069921;28;20032;-33
2022/09/20 05:49:33;;;;;;;2.63;0.70;;;;;;;9.84;69.64;93532.97;5066901;28;20039;-33
2022/09/20 05:52:36;;;;;;;0.20;0.20;;;;;;;9.97;70.35;93529.34;5090413;28;20062;-33
2022/09/20 05:55:13;;;;;;;0.40;0.40;;;;;;;9.94;69.35;93534.69;5090304;28;20486;-33
2022/09/20 05:57:43;;;;;;;0.20;0.20;;;;;;;9.97;68.31;93532.13;5091436;28;20028;-33
2022/09/20 06:00:10;;;;;;;0.32;0.32;;;;;;;10.08;68.66;93532.56;5094140;28;20031;-33
2022/09/20 06:03:03;;;;;;;0.50;0.50;;;;;;;10.19;68.26;93537.06;5076327;28;20032;-33
2022/09/20 06:05:47;;;;;;;0.45;0.45;;;;;;;10.15;67.72;93518.09;5076360;28;20028;-33
2022/09/20 06:08:37;;;;;;;0.20;0.20;;;;;;;10.31;67.49;93538.97;5075782;28;20035;-33
2022/09/20 06:11:09;;;;;;;0.20;0.20;;;;;;;10.25;67.07;93543.91;5094158;28;20035;-33
2022/09/20 06:14:08;;;;;;;0.43;0.43;;;;;;;10.33;67.65;93550.19;5093875;28;20024;-34
2022/09/20 06:17:03;;;;;;;0.20;0.20;;;;;;;10.54;66.94;93548.09;5094096;28;20165;-33
2022/09/20 06:19:32;;;;;;;0.20;0.20;;;;;;;10.65;66.71;93549.78;5093963;28;20062;-33
2022/09/20 06:22:02;;;;;;;0.25;0.25;;;;;;;10.51;66.70;93551.19;5094114;28;20024;-33
2022/09/20 06:24:45;;;;;;;0.20;0.20;;;;;;;10.52;66.87;93552.69;5076055;28;20051;-33
2022/09/20 06:27:21;;;;;;;0.20;0.20;;;;;;;10.51;66.76;93557.47;5075623;28;20032;-33
2022/09/20 06:29:52;;;;;;;0.57;0.57;;;;;;;10.60;66.13;93554.19;5075843;28;20073;-33
2022/09/20 06:32:18;;;;;;;1.83;0.45;;;;;;;10.62;65.65;93557.13;5093800;28;20063;-33
2022/09/20 06:34:44;;;;;;;0.20;0.20;;;;;;;10.72;65.84;93556.63;5093497;28;20050;-33
2022/09/20 06:43:18;;;;;;;0.30;0.30;;;;;;;10.78;65.72;93551.66;5078159;28;20027;-33
2022/09/20 06:45:44;;;;;;;0.30;0.30;;;;;;;10.87;65.44;93543.56;5093179;28;20020;-33
2022/09/20 06:48:11;;;;;;;0.28;0.28;;;;;;;11.07;65.10;93550.25;5093457;28;20035;-33
2022/09/20 06:50:38;;;;;;;0.80;0.63;;;;;;;11.59;63.96;93544.06;5093191;28;20035;-33
2022/09/20 06:53:04;;;;;;;0.20;0.20;;;;;;;12.18;60.70;93539.03;5093297;28;20103;-33
2022/09/20 06:55:36;;;;;;;0.55;0.55;;;;;;;13.24;58.39;93538.63;5075091;28;20020;-33
2022/09/20 06:58:02;;;;;;;0.20;0.20;;;;;;;14.14;55.44;93529.56;5075254;28;20020;-34
2022/09/20 07:00:27;;;;;;;0.20;0.20;;;;;;;15.15;51.51;93538.44;5093033;28;20048;-34
2022/09/20 07:02:54;;;;;;;0.40;0.40;;;;;;;16.29;48.84;93536.69;5092899;28;20043;-34
2022/09/20 07:05:25;;;;;;;1.10;0.45;;;;;;;17.42;46.21;93540.03;5093099;28;20016;-34
2022/09/20 07:07:58;;;;;;;1.08;0.35;;;;;;;18.19;42.73;93518.13;5092801;28;20032;-34
2022/09/20 07:10:26;;;;;;;0.20;0.20;;;;;;;19.15;40.84;93543.34;5092782;28;20027;-34
2022/09/20 07:12:55;;;;;;;0.22;0.22;;;;;;;19.82;39.88;93536.31;5092922;28;20031;-34
2022/09/20 07:15:23;;;;;;;0.75;0.75;;;;;;;19.93;38.58;93536.34;5092919;28;20020;-34
2022/09/20 07:17:49;;;;;;;0.25;0.25;;;;;;;20.16;37.83;93533.53;5092949;28;20034;-34
2022/09/20 07:20:15;;;;;;;0.38;0.38;;;;;;;20.66;37.35;93535.09;5092784;28;20084;-34
2022/09/20 07:22:41;;;;;;;0.10;0.10;;;;;;;21.20;36.90;93540.31;5092833;28;20094;-34
2022/09/20 07:25:07;;;;;;;1.88;0.63;;;;;;;21.40;35.41;93547.03;5092332;28;20016;-34
2022/09/20 07:27:32;;;;;;;0.10;0.10;;;;;;;21.77;34.97;93539.25;5092365;28;20024;-34
2022/09/20 07:29:58;;;;;;;0.20;0.20;;;;;;;22.13;34.84;93552.50;5092398;28;20024;-34
2022/09/20 07:32:23;;;;;;;0.20;0.20;;;;;;;21.90;34.07;93541.38;5092097;28;20028;-34
2022/09/20 07:34:48;;;;;;;0.10;0.10;;;;;;;22.08;34.17;93539.56;5092666;28;20046;-34
2022/09/20 07:37:17;;;;;;;0.10;0.10;;;;;;;21.68;33.94;93540.16;5092136;28;20035;-34
2022/09/20 07:39:44;;;;;;;0.20;0.20;;;;;;;21.18;34.37;93534.59;5092128;28;20095;-34
2022/09/20 07:42:10;;;;;;;0.10;0.10;;;;;;;20.34;35.89;93540.25;5091912;28;20016;-34
2022/09/20 07:44:39;;;;;;;0.10;0.10;;;;;;;19.80;37.34;93539.00;5092040;28;20031;-34
2022/09/20 07:47:05;;;;;;;0.10;0.10;;;;;;;18.96;38.80;93540.72;5091964;28;20491;-34
2022/09/20 07:49:30;;;;;;;5.78;0.55;;;;;;;19.66;37.88;93531.19;5092223;28;20062;-34
2022/09/20 07:51:57;;;;;;;0.10;0.10;;;;;;;19.83;36.48;93535.00;5091993;28;20024;-34
2022/09/20 07:54:22;;;;;;;0.10;0.10;;;;;;;19.13;38.14;93531.28;5091811;28;20054;-34
2022/09/20 07:56:48;;;;;;;0.30;0.30;;;;;;;18.28;40.07;93536.88;5091900;28;20043;-34
2022/09/20 07:59:14;;;;;;;0.10;0.10;;;;;;;17.59;40.34;93533.53;5092053;28;20016;-34
2022/09/20 08:01:40;;;;;;;0.10;0.10;;;;;;;17.07;39.20;93539.66;5091976;28;20099;-34
2022/09/20 08:04:07;;;;;;;0.10;0.10;;;;;;;16.76;38.99;93535.28;5091727;28;20047;-34
2022/09/20 08:06:37;;;;;;;0.10;0.10;;;;;;;17.50;37.30;93546.19;5073717;28;20458;-34
2022/09/20 08:09:03;;;;;;;0.10;0.10;;;;;;;16.78;39.54;93541.00;5092112;28;20024;-33
2022/09/20 08:11:29;;;;;;;0.10;0.10;;;;;;;16.25;39.45;93553.84;5091546;28;20107;-34
2022/09/20 08:13:56;;;;;;;0.10;0.10;;;;;;;15.79;40.16;93536.41;5091739;28;20103;-33
2022/09/20 08:16:22;;;;;;;0.20;0.20;;;;;;;15.83;41.41;93533.94;5091668;28;20024;-33
2022/09/20 08:18:50;;;;;;;0.20;0.20;;;;;;;16.19;40.12;93539.47;5091511;28;20024;-33
2022/09/20 08:21:16;;;;;;;0.20;0.20;;;;;;;16.17;40.44;93533.75;5091206;28;20032;-33
2022/09/20 08:23:43;;;;;;;0.20;0.20;;;;;;;17.47;38.48;93539.00;5073207;28;20107;-34
2022/09/20 08:26:13;;;;;;;0.10;0.10;;;;;;;19.14;37.30;93525.09;5090931;28;20024;-34
2022/09/20 08:28:40;;;;;;;0.10;0.10;;;;;;;19.93;34.43;93522.31;5091297;28;20511;-34
2022/09/20 08:31:08;;;;;;;0.10;0.10;;;;;;;19.58;34.43;93519.50;5091226;28;20078;-34
2022/09/20 08:33:36;;;;;;;0.30;0.30;;;;;;;18.40;35.40;93487.41;5091459;28;20020;-33
2022/09/20 08:36:05;;;;;;;0.10;0.10;;;;;;;18.62;34.40;93516.09;5091359;28;20020;-34
2022/09/20 08:38:31;;;;;;;0.30;0.30;;;;;;;19.31;35.64;93507.97;5072703;28;20046;-34
2022/09/20 08:41:01;;;;;;;0.10;0.10;;;;;;;20.24;32.51;93508.09;5091055;28;20032;-34
2022/09/20 08:43:29;;;;;;;0.38;0.30;;;;;;;19.99;34.67;93521.97;5090872;28;20016;-34
2022/09/20 08:45:57;;;;;;;0.10;0.10;;;;;;;19.32;34.04;93525.47;5073019;28;20027;-33
2022/09/20 08:48:27;;;;;;;0.10;0.10;;;;;;;18.89;33.66;93522.06;5072886;28;20127;-34
2022/09/20 08:50:53;;;;;;;0.10;0.10;;;;;;;17.86;35.58;93520.81;5073212;28;20072;-33
2022/09/20 08:53:18;;;;;;;0.10;0.10;;;;;;;17.86;35.30;93525.66;5090773;28;20112;-34
2022/09/20 08:55:44;;;;;;;0.10;0.10;;;;;;;18.61;36.91;93514.63;5090786;28;20024;-34
2022/09/20 08:58:12;;;;;;;0.20;0.20;;;;;;;19.41;35.41;93499.47;5072782;28;20024;-34
2022/09/20 09:00:39;;;;;;;0.88;0.52;;;;;;;20.05;33.74;93502.72;5090773;28;20051;-34
2022/09/20 09:03:09;;;;;;;0.10;0.10;;;;;;;19.20;33.43;93511.47;5090583;28;20521;-34
2022/09/20 09:05:49;;;;;;;0.10;0.10;;;;;;;18.53;34.45;93511.31;5090951;28;20407;-34
2022/09/20 09:08:18;;;;;;;0.30;0.30;;;;;;;18.42;33.74;93512.69;5090568;28;20380;-33
2022/09/20 09:10:50;;;;;;;0.45;0.45;;;;;;;18.02;35.65;93496.00;5090913;28;20456;-33
2022/09/20 09:13:47;;;;;;;0.10;0.10;;;;;;;18.52;35.97;93496.59;5073271;28;20020;-34
2022/09/20 09:16:15;;;;;;;0.10;0.10;;;;;;;19.04;34.03;93490.09;5072595;28;20024;-34
2022/09/20 09:18:43;;;;;;;0.30;0.30;;;;;;;19.22;34.35;93489.19;5072836;28;20024;-33
2022/09/20 09:21:20;;;;;;;0.13;0.13;;;;;;;19.53;35.27;93489.75;5090468;28;20491;-34
2022/09/20 09:24:08;;;;;;;0.10;0.10;;;;;;;19.88;33.25;93494.69;5090657;28;20028;-34
2022/09/20 09:26:35;;;;;;;0.10;0.10;;;;;;;21.09;32.28;93486.38;5052310;28;20032;-34
2022/09/20 09:29:15;;;;;;;0.10;0.10;;;;;;;22.78;30.16;93485.47;5082106;28;20403;-34
2022/09/20 09:31:42;;;;;;;0.00;0.00;;;;;;;23.01;27.93;93465.50;5090603;28;20408;-34
2022/09/20 09:34:26;;;;;;;0.10;0.10;;;;;;;23.50;26.88;93474.91;5076113;28;20024;-34
2022/09/20 09:36:53;;;;;;;0.00;0.00;;;;;;;23.64;27.38;93469.94;5094920;28;20020;-34
2022/09/20 09:39:24;;;;;;;0.10;0.10;;;;;;;23.09;26.78;93466.59;5094509;28;20059;-34
2022/09/20 09:41:50;;;;;;;0.10;0.10;;;;;;;21.55;30.14;93476.97;5094401;28;20008;-34
2022/09/20 09:44:20;;;;;;;0.00;0.00;;;;;;;20.60;30.25;93470.94;5076614;28;20574;-34
2022/09/20 09:46:46;;;;;;;0.10;0.10;;;;;;;19.94;33.37;93467.75;5094449;28;20493;-34
2022/09/20 09:49:23;;;;;;;0.52;0.52;;;;;;;19.41;32.84;93471.50;5076629;28;20024;-33
2022/09/20 09:52:00;;;;;;;0.10;0.10;;;;;;;20.04;32.92;93467.59;5094555;28;20020;-34
2022/09/20 09:54:45;;;;;;;0.20;0.20;;;;;;;21.03;30.16;93463.59;5094525;28;20024;-34
2022/09/20 09:57:11;;;;;;;0.10;0.10;;;;;;;20.21;29.99;93464.44;5076330;28;20020;-34
2022/09/20 09:59:58;;;;;;;0.68;0.68;;;;;;;20.02;31.63;93468.22;5094461;28;20035;-34
2022/09/20 10:02:28;;;;;;;0.10;0.10;;;;;;;19.43;31.33;93461.16;5076167;28;20024;-34
2022/09/20 10:05:09;;;;;;;0.10;0.10;;;;;;;18.73;34.05;93463.00;5076216;28;20445;-34
2022/09/20 10:07:48;;;;;;;0.10;0.10;;;;;;;18.65;32.55;93467.34;5094335;28;20081;-33
2022/09/20 10:10:51;;;;;;;0.15;0.15;;;;;;;18.80;34.49;93462.06;5094022;28;20126;-34
2022/09/20 10:13:48;;;;;;;0.20;0.20;;;;;;;18.78;33.56;93464.00;5093929;28;20042;-34
2022/09/20 10:16:52;;;;;;;0.30;0.30;;;;;;;18.17;33.21;93467.69;5094127;28;20099;-33
2022/09/20 10:19:39;;;;;;;0.10;0.10;;;;;;;18.53;33.27;93470.09;5094102;28;20099;-33
2022/09/20 10:23:00;;;;;;;0.10;0.10;;;;;;;19.98;32.20;93465.19;5093967;28;20019;-34
2022/09/20 10:25:48;;;;;;;0.10;0.10;;;;;;;19.60;30.88;93458.00;5010988;28;20025;-34
2022/09/20 10:28:35;;;;;;;0.30;0.30;;;;;;;19.04;33.00;93459.31;5011269;28;20033;-34
2022/09/20 10:31:13;;;;;;;0.10;0.10;;;;;;;19.42;33.10;93451.31;5059174;28;20115;-34
2022/09/20 10:34:08;;;;;;;0.10;0.10;;;;;;;20.43;30.45;93443.31;5073423;28;20028;-34
2022/09/20 10:36:46;;;;;;;0.10;0.10;;;;;;;20.72;32.77;93437.97;5055373;28;21007;-34
2022/09/20 10:39:34;;;;;;;0.40;0.40;;;;;;;21.68;30.06;93428.50;5039481;28;20155;-34
2022/09/20 10:45:21;;;;;;;0.15;0.15;;;;;;;22.04;29.67;93448.63;5092912;28;20059;-34
2022/09/20 10:48:06;;;;;;;1.92;0.50;;;;;;;23.41;27.90;93444.91;5093347;28;20484;-34
2022/09/20 10:50:43;;;;;;;0.20;0.20;;;;;;;23.01;25.49;93448.59;5093277;28;20454;-34
2022/09/20 10:53:18;;;;;;;0.20;0.20;;;;;;;21.40;27.56;93452.28;5075169;28;20032;-34
2022/09/20 10:56:02;;;;;;;0.10;0.10;;;;;;;20.41;31.33;93454.41;5093321;28;20031;-34
2022/09/20 10:58:36;;;;;;;0.10;0.10;;;;;;;19.59;32.52;93456.53;5075094;28;20024;-34
2022/09/20 11:01:28;;;;;;;0.10;0.10;;;;;;;19.47;32.05;93449.44;5075326;28;20059;-34
2022/09/20 11:04:12;;;;;;;0.10;0.10;;;;;;;18.96;33.00;93439.97;5092886;28;20576;-34
2022/09/20 11:07:15;;;;;;;0.20;0.20;;;;;;;18.27;33.54;93454.38;5092906;28;20577;-33
2022/09/20 11:09:50;;;;;;;0.38;0.38;;;;;;;18.02;35.76;93446.47;5093133;28;20024;-33
2022/09/20 11:12:23;;;;;;;0.30;0.30;;;;;;;18.26;34.06;93441.03;5074840;28;20085;-33
2022/09/20 11:15:03;;;;;;;0.55;0.55;;;;;;;18.26;34.73;93441.72;5092703;28;20066;-34
2022/09/20 11:17:32;;;;;;;0.52;0.52;;;;;;;18.65;35.04;93437.31;5092633;28;20555;-33
2022/09/20 11:20:12;;;;;;;0.28;0.28;;;;;;;19.27;33.40;93434.94;5074855;28;20103;-34
2022/09/20 11:22:46;;;;;;;0.95;0.88;;;;;;;19.47;32.28;93429.84;5092918;28;20039;-34
2022/09/20 11:25:29;;;;;;;0.30;0.30;;;;;;;19.62;31.85;93416.09;5092042;28;20454;-34
2022/09/20 11:28:13;;;;;;;0.10;0.10;;;;;;;20.45;31.27;93425.84;5074372;28;20024;-34
2022/09/20 11:30:54;;;;;;;0.10;0.10;;;;;;;20.51;28.81;93420.59;5092456;28;20412;-34
2022/09/20 11:33:35;;;;;;;0.10;0.10;;;;;;;20.24;31.94;93416.28;5092286;28;20032;-34
2022/09/20 11:36:09;;;;;;;0.20;0.20;;;;;;;19.30;31.03;93416.91;5074744;28;20027;-33
2022/09/20 11:38:55;;;;;;;0.10;0.10;;;;;;;18.84;32.38;93419.66;5074195;28;20071;-33
2022/09/20 11:41:31;;;;;;;0.10;0.10;;;;;;;19.04;35.02;93414.56;5074571;28;20059;-33
2022/09/20 11:44:05;;;;;;;0.10;0.10;;;;;;;19.48;33.65;93415.25;5074393;28;20032;-34
2022/09/20 11:46:37;;;;;;;0.30;0.30;;;;;;;19.33;32.85;93421.31;5074409;28;20028;-34
2022/09/20 11:49:25;;;;;;;0.10;0.10;;;;;;;19.71;33.70;93422.91;5092031;28;20133;-34
2022/09/20 11:52:04;;;;;;;0.10;0.10;;;;;;;20.56;31.14;93411.06;5092321;28;20442;-34
2022/09/20 11:54:55;;;;;;;0.10;0.10;;;;;;;21.06;31.42;93414.63;5073796;28;20476;-34
2022/09/20 11:57:21;;;;;;;0.10;0.10;;;;;;;21.68;28.99;93410.91;5091850;28;20032;-34
2022/09/20 12:00:00;;;;;;;0.10;0.10;;;;;;;21.22;30.43;93403.56;5073708;28;20028;-34
2022/09/20 12:02:45;;;;;;;0.10;0.10;;;;;;;21.69;30.15;93415.91;5091730;28;20503;-34
2022/09/20 12:05:34;;;;;;;0.00;0.00;;;;;;;21.80;29.01;93414.34;5091794;28;20085;-34
2022/09/20 12:08:03;;;;;;;0.10;0.10;;;;;;;21.44;29.62;93418.78;5073783;28;20036;-34
2022/09/20 12:10:35;;;;;;;0.10;0.10;;;;;;;20.66;31.16;93409.53;5073874;28;20035;-34
2022/09/20 12:13:06;;;;;;;0.10;0.10;;;;;;;20.02;31.15;93389.75;5091613;28;20039;-34
2022/09/20 12:15:33;;;;;;;0.10;0.10;;;;;;;19.46;31.68;93412.34;5091838;28;20024;-34
2022/09/20 12:17:59;;;;;;;0.10;0.10;;;;;;;18.96;32.60;93411.25;5091735;28;20095;-34
2022/09/20 12:20:52;;;;;;;0.10;0.10;;;;;;;18.59;32.92;93408.25;5091745;28;20475;-33
2022/09/20 12:23:42;;;;;;;0.10;0.10;;;;;;;18.35;34.43;93410.19;5091318;28;20043;-33
2022/09/20 12:26:07;;;;;;;0.10;0.10;;;;;;;18.18;33.97;93421.66;5091217;28;20059;-33
2022/09/20 12:28:40;;;;;;;0.10;0.10;;;;;;;18.29;36.10;93403.47;5091285;28;20110;-34
2022/09/20 12:31:20;;;;;;;0.10;0.10;;;;;;;18.91;33.49;93399.81;5091201;28;20074;-34
2022/09/20 12:34:08;;;;;;;0.10;0.10;;;;;;;18.78;33.66;93394.06;5091475;28;20028;-34
2022/09/20 12:36:42;;;;;;;0.40;0.40;;;;;;;19.16;33.22;93395.72;5091393;28;20035;-33